createdAt,value
2018-03-18T00:01:20.011Z,43.40
2018-03-18T00:03:46.815Z,42.70
2018-03-18T00:06:12.859Z,42.70
2018-03-18T00:08:39.599Z,42.40
2018-03-18T00:11:06.354Z,43.20
2018-03-18T00:13:33.100Z,43.30
2018-03-18T00:15:59.840Z,43.00
2018-03-18T00:18:26.575Z,42.60
2018-03-18T00:20:53.319Z,43.30
2018-03-18T00:23:20.055Z,43.40
2018-03-18T00:25:46.786Z,43.00
2018-03-18T00:28:13.523Z,43.00
2018-03-18T00:30:39.522Z,43.00
2018-03-18T00:33:05.516Z,43.10
2018-03-18T00:35:31.516Z,43.30
2018-03-18T00:37:57.531Z,42.60
2018-03-18T00:40:23.859Z,43.10
2018-03-18T00:42:50.608Z,43.20
2018-03-18T00:45:17.357Z,43.30
2018-03-18T00:47:43.366Z,43.30
2018-03-18T00:50:09.347Z,42.80
2018-03-18T00:52:35.368Z,43.20
2018-03-18T00:55:01.355Z,43.30
2018-03-18T00:57:27.369Z,43.00
2018-03-18T00:59:53.359Z,42.90
2018-03-18T01:02:19.375Z,43.50
2018-03-18T01:04:45.364Z,43.00
2018-03-18T01:07:11.415Z,43.30
2018-03-18T01:09:37.540Z,44.50
2018-03-18T01:12:03.563Z,43.50
2018-03-18T01:14:29.558Z,43.50
2018-03-18T01:17:02.476Z,43.00
2018-03-18T01:19:28.495Z,43.70
2018-03-18T01:21:54.498Z,43.60
2018-03-18T01:24:20.490Z,43.40
2018-03-18T01:26:46.523Z,43.00
2018-03-18T01:29:13.259Z,43.80
2018-03-18T01:31:39.267Z,43.70
2018-03-18T01:34:05.994Z,43.60
2018-03-18T01:36:32.731Z,43.40
2018-03-18T01:38:59.551Z,43.00
2018-03-18T01:41:25.535Z,42.90
2018-03-18T01:43:51.546Z,42.80
2018-03-18T01:46:17.558Z,43.50
2018-03-18T01:48:44.308Z,43.70
2018-03-18T01:51:10.295Z,43.70
2018-03-18T01:53:36.307Z,43.00
2018-03-18T01:56:02.423Z,43.70
2018-03-18T01:58:28.418Z,43.80
2018-03-18T02:00:54.402Z,43.90
2018-03-18T02:03:20.410Z,43.80
2018-03-18T02:05:46.385Z,44.20
2018-03-18T02:08:12.516Z,44.50
2018-03-18T02:10:38.691Z,44.50
2018-03-18T02:13:04.699Z,44.20
2018-03-18T02:15:30.694Z,44.20
2018-03-18T02:17:56.686Z,44.60
2018-03-18T02:20:22.715Z,44.80
2018-03-18T02:22:49.467Z,44.50
2018-03-18T02:25:15.483Z,44.40
2018-03-18T02:27:41.540Z,45.20
2018-03-18T02:30:07.565Z,43.70
2018-03-18T02:32:33.560Z,44.50
2018-03-18T02:34:59.566Z,44.60
2018-03-18T02:37:26.300Z,44.80
2018-03-18T02:39:53.052Z,44.40
2018-03-18T02:42:19.079Z,44.30
2018-03-18T02:44:45.839Z,45.30
2018-03-18T02:47:11.856Z,45.00
2018-03-18T02:49:38.115Z,44.50
2018-03-18T02:52:04.108Z,44.10
2018-03-18T02:54:30.147Z,44.90
2018-03-18T02:56:56.139Z,44.90
2018-03-18T02:59:22.168Z,44.80
2018-03-18T03:01:48.174Z,45.50
2018-03-18T03:04:14.939Z,46.50
2018-03-18T03:06:41.684Z,46.40
2018-03-18T03:09:07.951Z,46.60
2018-03-18T03:11:34.079Z,46.60
2018-03-18T03:14:00.116Z,46.40
2018-03-18T03:16:26.108Z,45.70
2018-03-18T03:18:52.150Z,45.60
2018-03-18T03:21:18.146Z,47.20
2018-03-18T03:23:44.137Z,45.60
2018-03-18T03:26:10.875Z,45.30
2018-03-18T03:28:36.876Z,45.30
2018-03-18T03:31:02.884Z,46.20
2018-03-18T03:33:28.880Z,46.00
2018-03-18T03:35:54.882Z,45.90
2018-03-18T03:38:20.882Z,46.00
2018-03-18T03:40:47.633Z,45.10
2018-03-18T03:43:13.830Z,45.00
2018-03-18T03:45:39.848Z,45.60
2018-03-18T03:48:05.838Z,45.40
2018-03-18T03:50:31.847Z,45.20
2018-03-18T03:52:57.849Z,44.80
2018-03-18T03:55:24.590Z,45.90
2018-03-18T03:57:50.767Z,45.10
2018-03-18T04:00:16.771Z,44.80
2018-03-18T04:02:42.832Z,43.90
2018-03-18T04:05:09.601Z,43.50
2018-03-18T04:07:36.343Z,43.30
2018-03-18T04:10:03.099Z,42.30
2018-03-18T04:12:29.083Z,42.20
2018-03-18T04:14:55.863Z,41.40
2018-03-18T04:17:21.858Z,41.40
2018-03-18T04:19:47.854Z,40.90
2018-03-18T04:22:13.843Z,41.00
2018-03-18T04:24:39.836Z,41.70
2018-03-18T04:27:05.843Z,40.20
2018-03-18T04:29:31.849Z,41.20
2018-03-18T04:31:57.851Z,41.60
2018-03-18T04:34:24.261Z,41.10
2018-03-18T04:36:50.261Z,39.40
2018-03-18T04:39:16.991Z,40.30
2018-03-18T04:41:43.747Z,41.20
2018-03-18T04:44:10.475Z,41.50
2018-03-18T04:46:37.239Z,40.80
2018-03-18T04:49:03.235Z,40.80
2018-03-18T04:51:29.996Z,39.90
2018-03-18T04:53:56.735Z,40.20
2018-03-18T04:56:23.601Z,40.10
2018-03-18T04:58:49.616Z,40.00
2018-03-18T05:01:15.612Z,40.00
2018-03-18T05:03:42.346Z,38.40
2018-03-18T05:06:08.375Z,38.40
2018-03-18T05:08:35.112Z,39.70
2018-03-18T05:11:01.111Z,39.80
2018-03-18T05:13:27.250Z,39.30
2018-03-18T05:15:53.271Z,39.00
2018-03-18T05:18:19.395Z,39.50
2018-03-18T05:20:45.287Z,38.90
2018-03-18T05:23:11.298Z,38.40
2018-03-18T05:25:37.295Z,37.80
2018-03-18T05:28:04.036Z,38.60
2018-03-18T05:30:30.759Z,36.50
2018-03-18T05:32:57.532Z,38.60
2018-03-18T05:35:23.719Z,38.50
2018-03-18T05:37:50.604Z,38.50
2018-03-18T05:40:16.606Z,38.40
2018-03-18T05:42:42.599Z,38.00
2018-03-18T05:45:08.572Z,37.80
2018-03-18T05:47:35.312Z,37.90
2018-03-18T05:50:01.309Z,37.90
2018-03-18T05:52:28.043Z,36.90
2018-03-18T05:54:54.791Z,36.90
2018-03-18T05:57:21.539Z,37.40
2018-03-18T05:59:48.284Z,37.60
2018-03-18T06:02:14.283Z,37.50
2018-03-18T06:04:41.116Z,38.40
2018-03-18T06:07:07.108Z,38.20
2018-03-18T06:09:33.126Z,37.80
2018-03-18T06:11:59.127Z,38.80
2018-03-18T06:14:25.351Z,37.90
2018-03-18T06:16:51.351Z,37.00
2018-03-18T06:19:18.123Z,37.00
2018-03-18T06:21:44.859Z,36.50
2018-03-18T06:24:10.879Z,36.50
2018-03-18T06:26:36.877Z,36.80
2018-03-18T06:29:03.646Z,37.80
2018-03-18T06:31:29.692Z,37.70
2018-03-18T06:33:55.706Z,36.00
2018-03-18T06:36:21.716Z,38.40
2018-03-18T06:38:47.714Z,36.60
2018-03-18T06:41:14.471Z,37.10
2018-03-18T06:43:40.502Z,37.00
2018-03-18T06:46:06.498Z,35.90
2018-03-18T06:48:33.277Z,36.70
2018-03-18T06:50:59.278Z,36.00
2018-03-18T06:53:25.323Z,35.90
2018-03-18T06:55:51.287Z,35.40
2018-03-18T06:58:17.282Z,34.70
2018-03-18T07:00:43.283Z,36.70
2018-03-18T07:03:09.327Z,36.00
2018-03-18T07:05:35.327Z,35.90
2018-03-18T07:08:02.042Z,34.10
2018-03-18T07:10:28.043Z,34.10
2018-03-18T07:12:54.039Z,34.10
2018-03-18T07:15:20.278Z,35.30
2018-03-18T07:17:46.222Z,33.90
2018-03-18T07:20:12.227Z,33.70
2018-03-18T07:22:38.242Z,34.20
2018-03-18T07:25:04.319Z,33.60
2018-03-18T07:27:31.046Z,34.40
2018-03-18T07:29:57.042Z,34.30
2018-03-18T07:32:23.144Z,33.70
2018-03-18T07:34:49.198Z,33.40
2018-03-18T07:37:15.270Z,33.80
2018-03-18T07:39:41.259Z,33.20
2018-03-18T07:42:07.338Z,33.60
2018-03-18T07:44:33.343Z,34.20
2018-03-18T07:46:59.354Z,32.40
2018-03-18T07:49:26.083Z,32.70
2018-03-18T07:51:52.840Z,36.30
2018-03-18T07:54:18.883Z,35.50
2018-03-18T07:56:44.891Z,33.20
2018-03-18T07:59:10.886Z,33.50
2018-03-18T08:01:36.892Z,31.70
2018-03-18T08:04:02.880Z,32.00
2018-03-18T08:06:28.904Z,32.00
2018-03-18T08:08:54.937Z,31.00
2018-03-18T08:11:20.952Z,31.60
2018-03-18T08:13:46.930Z,31.40
2018-03-18T08:16:13.707Z,32.60
2018-03-18T08:18:40.480Z,32.50
2018-03-18T08:21:07.279Z,32.60
2018-03-18T08:23:33.277Z,32.50
2018-03-18T08:25:59.287Z,31.10
2018-03-18T08:28:25.315Z,32.30
2018-03-18T08:30:51.307Z,31.30
2018-03-18T08:33:17.327Z,31.70
2018-03-18T08:35:43.319Z,33.40
2018-03-18T08:38:09.319Z,35.50
2018-03-18T08:40:36.105Z,34.20
2018-03-18T08:43:02.194Z,33.70
2018-03-18T08:45:28.933Z,35.20
2018-03-18T08:47:55.684Z,31.70
2018-03-18T08:50:22.415Z,31.20
2018-03-18T08:52:49.167Z,31.80
2018-03-18T08:55:15.903Z,31.40
2018-03-18T08:57:42.647Z,72.50
2018-03-18T09:00:09.584Z,33.70
2018-03-18T09:02:36.455Z,31.10
2018-03-18T09:05:02.453Z,31.00
2018-03-18T09:07:29.198Z,32.30
2018-03-18T09:09:55.935Z,32.10
2018-03-18T09:12:22.789Z,36.70
2018-03-18T09:14:48.838Z,36.90
2018-03-18T09:17:14.854Z,29.70
2018-03-18T09:19:40.854Z,34.00
2018-03-18T09:22:06.888Z,32.10
2018-03-18T09:24:33.619Z,30.50
2018-03-18T09:27:00.368Z,31.50
2018-03-18T09:29:27.242Z,31.90
2018-03-18T09:31:53.227Z,31.90
2018-03-18T09:34:20.193Z,33.70
2018-03-18T09:36:46.392Z,33.70
2018-03-18T09:39:12.403Z,33.70
2018-03-18T09:41:39.142Z,32.80
2018-03-18T09:44:05.155Z,32.90
2018-03-18T09:46:31.162Z,33.60
2018-03-18T09:48:57.196Z,32.60
2018-03-18T09:51:23.195Z,32.90
2018-03-18T09:53:49.192Z,33.40
2018-03-18T09:56:15.192Z,32.20
2018-03-18T09:58:41.942Z,32.20
2018-03-18T10:01:07.948Z,32.20
2018-03-18T10:03:34.003Z,33.40
2018-03-18T10:05:59.991Z,33.00
2018-03-18T10:08:25.995Z,33.30
2018-03-18T10:10:52.190Z,33.40
2018-03-18T10:13:18.192Z,33.20
2018-03-18T10:15:44.361Z,33.10
2018-03-18T10:18:10.962Z,34.60
2018-03-18T10:20:36.977Z,34.30
2018-03-18T10:23:02.993Z,33.30
2018-03-18T10:25:29.733Z,32.80
2018-03-18T10:27:56.494Z,33.40
2018-03-18T10:30:22.587Z,33.30
2018-03-18T10:32:49.365Z,33.30
2018-03-18T10:35:15.413Z,33.20
2018-03-18T10:37:42.570Z,32.60
2018-03-18T10:40:08.840Z,31.60
2018-03-18T10:42:34.895Z,32.60
2018-03-18T10:45:00.898Z,32.20
2018-03-18T10:47:26.925Z,31.60
2018-03-18T10:49:53.963Z,33.70
2018-03-18T10:52:20.016Z,32.30
2018-03-18T10:54:46.124Z,48.80
2018-03-18T10:57:12.149Z,27.00
2018-03-18T10:59:38.921Z,29.10
2018-03-18T11:02:05.032Z,29.10
2018-03-18T11:04:31.071Z,30.60
2018-03-18T11:06:57.939Z,31.60
2018-03-18T11:09:24.640Z,31.60
2018-03-18T11:11:50.705Z,31.80
2018-03-18T11:14:16.724Z,31.90
2018-03-18T11:16:44.234Z,32.20
2018-03-18T11:19:10.264Z,32.10
2018-03-18T11:21:36.332Z,31.00
2018-03-18T11:24:03.323Z,31.40
2018-03-18T11:26:29.339Z,31.50
2018-03-18T11:28:55.403Z,31.10
2018-03-18T11:31:21.428Z,31.20
2018-03-18T11:33:47.431Z,30.10
2018-03-18T11:36:13.540Z,30.80
2018-03-18T11:38:39.635Z,30.30
2018-03-18T11:41:05.632Z,30.70
2018-03-18T11:43:31.685Z,30.00
2018-03-18T11:45:57.687Z,29.60
2018-03-18T11:48:24.227Z,30.30
2018-03-18T11:50:50.252Z,30.20
2018-03-18T11:53:16.271Z,30.00
2018-03-18T11:55:42.272Z,29.30
2018-03-18T11:58:08.264Z,29.30
2018-03-18T12:00:35.231Z,29.80
2018-03-18T12:03:01.284Z,29.80
2018-03-18T12:05:27.460Z,29.40
2018-03-18T12:07:54.287Z,29.90
2018-03-18T12:10:20.282Z,29.80
2018-03-18T12:12:46.304Z,30.40
2018-03-18T12:15:12.338Z,29.80
2018-03-18T12:17:38.349Z,30.80
2018-03-18T12:20:04.379Z,30.30
2018-03-18T12:22:31.220Z,29.90
2018-03-18T12:24:57.300Z,29.70
2018-03-18T12:27:23.318Z,31.60
2018-03-18T12:29:50.153Z,31.50
2018-03-18T12:32:16.890Z,30.50
2018-03-18T12:34:43.628Z,30.80
2018-03-18T12:37:10.371Z,31.10
2018-03-18T12:39:44.316Z,31.10
2018-03-18T12:42:10.453Z,31.10
2018-03-18T12:44:36.451Z,30.90
2018-03-18T12:47:02.534Z,30.90
2018-03-18T12:49:28.519Z,30.50
2018-03-18T12:51:54.521Z,31.80
2018-03-18T12:54:20.511Z,30.80
2018-03-18T12:56:47.279Z,29.50
2018-03-18T12:59:13.286Z,29.50
2018-03-18T13:01:40.036Z,30.80
2018-03-18T13:04:06.055Z,30.80
2018-03-18T13:06:32.843Z,29.50
2018-03-18T13:08:59.788Z,29.60
2018-03-18T13:11:26.913Z,38.90
2018-03-18T13:13:52.959Z,38.20
2018-03-18T13:16:19.654Z,30.10
2018-03-18T13:18:46.393Z,29.30
2018-03-18T13:21:12.536Z,29.30
2018-03-18T13:23:39.193Z,30.10
2018-03-18T13:26:05.402Z,30.80
2018-03-18T13:28:31.420Z,30.50
2018-03-18T13:30:58.146Z,30.70
2018-03-18T13:33:24.889Z,31.70
2018-03-18T13:35:51.618Z,32.80
2018-03-18T13:38:17.623Z,32.90
2018-03-18T13:40:43.610Z,32.80
2018-03-18T13:43:09.632Z,33.20
2018-03-18T13:45:35.623Z,32.60
2018-03-18T13:48:02.380Z,33.80
2018-03-18T13:50:28.395Z,33.70
2018-03-18T13:52:54.399Z,34.30
2018-03-18T13:55:20.395Z,33.60
2018-03-18T13:57:46.427Z,33.40
2018-03-18T14:00:12.443Z,33.30
2018-03-18T14:02:38.472Z,32.50
2018-03-18T14:05:04.463Z,32.90
2018-03-18T14:07:30.494Z,32.50
2018-03-18T14:09:56.487Z,32.90
2018-03-18T14:12:22.609Z,32.80
2018-03-18T14:14:48.556Z,33.70
2018-03-18T14:17:14.567Z,32.70
2018-03-18T14:19:40.575Z,32.30
2018-03-18T14:22:07.348Z,32.40
2018-03-18T14:24:33.395Z,32.40
2018-03-18T14:26:59.384Z,32.50
2018-03-18T14:29:25.450Z,30.50
2018-03-18T14:31:51.435Z,32.30
2018-03-18T14:34:17.447Z,31.30
2018-03-18T14:36:43.471Z,30.80
2018-03-18T14:39:09.514Z,30.50
2018-03-18T14:41:35.494Z,31.90
2018-03-18T14:44:02.237Z,31.30
2018-03-18T14:46:28.223Z,31.40
2018-03-18T14:48:54.246Z,30.50
2018-03-18T14:51:20.269Z,32.00
2018-03-18T14:53:46.298Z,31.50
2018-03-18T14:56:12.300Z,32.50
2018-03-18T14:58:38.300Z,33.70
2018-03-18T15:01:04.290Z,33.10
2018-03-18T15:03:31.252Z,34.00
2018-03-18T15:05:57.281Z,34.00
2018-03-18T15:08:23.471Z,35.00
2018-03-18T15:10:50.239Z,35.20
2018-03-18T15:13:16.983Z,35.40
2018-03-18T15:15:42.991Z,35.40
2018-03-18T15:18:09.824Z,34.70
2018-03-18T15:20:35.830Z,34.70
2018-03-18T15:23:01.839Z,33.20
2018-03-18T15:25:27.840Z,32.20
2018-03-18T15:27:53.851Z,32.70
2018-03-18T15:30:19.852Z,33.20
2018-03-18T15:32:46.590Z,34.20
2018-03-18T15:35:12.622Z,33.80
2018-03-18T15:37:40.083Z,36.20
2018-03-18T15:40:06.831Z,36.40
2018-03-18T15:42:32.831Z,36.40
2018-03-18T15:44:58.835Z,36.80
2018-03-18T15:47:24.827Z,36.80
2018-03-18T15:49:50.824Z,36.80
2018-03-18T15:52:16.803Z,36.50
2018-03-18T15:54:42.828Z,35.60
2018-03-18T15:57:08.815Z,36.80
2018-03-18T15:59:34.836Z,37.90
2018-03-18T16:02:00.842Z,38.90
2018-03-18T16:04:27.575Z,39.30
2018-03-18T16:07:01.169Z,39.10
2018-03-18T16:09:27.920Z,38.20
2018-03-18T16:11:53.943Z,38.20
2018-03-18T16:14:19.957Z,39.00
2018-03-18T16:16:46.702Z,40.10
2018-03-18T16:19:13.439Z,40.60
2018-03-18T16:21:40.171Z,38.70
2018-03-18T16:24:06.907Z,39.70
2018-03-18T16:26:33.675Z,38.60
2018-03-18T16:29:05.998Z,38.70
2018-03-18T16:31:32.012Z,40.00
2018-03-18T16:33:58.008Z,40.10
2018-03-18T16:36:24.021Z,40.30
2018-03-18T16:38:50.015Z,40.90
2018-03-18T16:41:16.791Z,41.00
2018-03-18T16:43:42.782Z,40.20
2018-03-18T16:46:09.699Z,41.70
2018-03-18T16:48:36.477Z,40.30
2018-03-18T16:51:03.223Z,40.40
2018-03-18T16:53:29.963Z,41.50
2018-03-18T16:55:56.758Z,42.00
2018-03-18T16:58:22.728Z,42.00
2018-03-18T17:00:49.525Z,43.20
2018-03-18T17:03:15.520Z,43.20
2018-03-18T17:05:41.538Z,44.20
2018-03-18T17:08:07.548Z,45.00
2018-03-18T17:10:33.687Z,45.30
2018-03-18T17:13:00.612Z,44.80
2018-03-18T17:15:27.334Z,45.70
2018-03-18T17:17:53.342Z,45.70
2018-03-18T17:20:19.383Z,46.20
2018-03-18T17:22:45.489Z,46.20
2018-03-18T17:25:11.491Z,46.30
2018-03-18T17:27:37.870Z,47.10
2018-03-18T17:30:03.932Z,46.90
2018-03-18T17:32:29.944Z,47.50
2018-03-18T17:34:55.945Z,47.20
2018-03-18T17:37:22.699Z,46.90
2018-03-18T17:39:48.700Z,47.00
2018-03-18T17:42:15.452Z,47.60
2018-03-18T17:44:48.390Z,48.30
2018-03-18T17:47:20.500Z,48.20
2018-03-18T17:49:52.499Z,48.40
2018-03-18T17:52:24.578Z,48.70
2018-03-18T17:54:56.796Z,48.50
2018-03-18T17:57:23.832Z,49.20
2018-03-18T17:59:50.574Z,48.60
2018-03-18T18:02:16.562Z,48.50
2018-03-18T18:04:42.562Z,48.90
2018-03-18T18:07:08.553Z,48.20
2018-03-18T18:09:35.299Z,49.20
2018-03-18T18:12:01.287Z,49.10
2018-03-18T18:14:27.271Z,49.40
2018-03-18T18:16:53.388Z,49.60
2018-03-18T18:19:19.508Z,49.60
2018-03-18T18:21:45.503Z,49.70
2018-03-18T18:24:11.581Z,50.10
2018-03-18T18:26:37.576Z,49.90
2018-03-18T18:29:03.575Z,50.10
2018-03-18T18:31:30.318Z,50.80
2018-03-18T18:33:56.487Z,50.20
2018-03-18T18:36:22.483Z,50.20
2018-03-18T18:38:49.232Z,51.10
2018-03-18T18:41:15.286Z,50.30
2018-03-18T18:43:41.271Z,50.40
2018-03-18T18:46:08.015Z,51.00
2018-03-18T18:48:34.755Z,50.90
2018-03-18T18:51:01.653Z,50.70
2018-03-18T18:53:27.638Z,50.70
2018-03-18T18:55:53.662Z,50.90
2018-03-18T18:58:20.481Z,52.50
2018-03-18T19:00:46.446Z,52.50
2018-03-18T19:03:12.586Z,51.00
2018-03-18T19:05:39.366Z,51.50
2018-03-18T19:08:06.100Z,51.00
2018-03-18T19:10:32.838Z,51.30
2018-03-18T19:12:58.838Z,51.30
2018-03-18T19:15:24.835Z,51.50
2018-03-18T19:17:50.810Z,51.50
2018-03-18T19:20:17.546Z,51.50
2018-03-18T19:22:43.536Z,51.60
2018-03-18T19:25:09.575Z,52.00
2018-03-18T19:27:35.553Z,51.90
2018-03-18T19:30:01.559Z,52.20
2018-03-18T19:32:27.580Z,53.00
2018-03-18T19:34:54.318Z,52.80
2018-03-18T19:37:21.061Z,71.80
2018-03-18T19:39:59.129Z,48.10
2018-03-18T19:42:25.199Z,48.00
2018-03-18T19:44:51.199Z,49.50
2018-03-18T19:47:17.431Z,51.00
2018-03-18T19:49:44.169Z,52.40
2018-03-18T19:52:10.934Z,52.80
2018-03-18T19:54:36.951Z,52.80
2018-03-18T19:57:03.711Z,53.30
2018-03-18T19:59:30.505Z,53.30
2018-03-18T20:01:56.498Z,53.30
2018-03-18T20:04:22.539Z,53.40
2018-03-18T20:06:48.622Z,54.40
2018-03-18T20:09:14.663Z,54.20
2018-03-18T20:11:40.764Z,54.00
2018-03-18T20:14:07.498Z,54.30
2018-03-18T20:16:34.259Z,54.10
2018-03-18T20:19:00.302Z,54.10
2018-03-18T20:21:26.355Z,54.50
2018-03-18T20:23:52.322Z,54.30
2018-03-18T20:26:18.316Z,54.50
2018-03-18T20:28:44.363Z,54.60
2018-03-18T20:31:10.393Z,55.30
2018-03-18T20:33:36.427Z,54.50
2018-03-18T20:36:02.441Z,55.10
2018-03-18T20:38:28.564Z,55.10
2018-03-18T20:40:54.594Z,55.70
2018-03-18T20:43:20.641Z,55.70
2018-03-18T20:45:47.343Z,55.50
2018-03-18T20:48:14.143Z,55.50
2018-03-18T20:50:40.112Z,55.40
2018-03-18T20:53:06.115Z,55.20
2018-03-18T20:55:32.111Z,55.10
2018-03-18T20:57:58.102Z,55.40
2018-03-18T21:00:24.155Z,56.00
2018-03-18T21:02:50.177Z,55.10
2018-03-18T21:05:16.168Z,55.50
2018-03-18T21:07:42.155Z,56.00
2018-03-18T21:10:08.897Z,56.20
2018-03-18T21:12:35.018Z,56.20
2018-03-18T21:15:01.787Z,55.80
2018-03-18T21:17:28.519Z,55.20
2018-03-18T21:19:54.495Z,55.20
2018-03-18T21:22:20.491Z,55.40
2018-03-18T21:24:46.465Z,55.20
2018-03-18T21:27:12.444Z,55.20
2018-03-18T21:29:38.427Z,55.60
2018-03-18T21:32:05.125Z,55.30
2018-03-18T21:34:37.963Z,55.30
2018-03-18T21:37:04.108Z,55.20
2018-03-18T21:39:30.102Z,55.30
2018-03-18T21:41:56.818Z,55.60
2018-03-18T21:44:22.840Z,55.60
2018-03-18T21:46:48.856Z,55.60
2018-03-18T21:49:14.847Z,55.60
2018-03-18T21:51:40.873Z,55.90
2018-03-18T21:54:06.930Z,56.00
2018-03-18T21:56:33.046Z,55.60
2018-03-18T21:58:59.023Z,55.60
2018-03-18T22:01:25.122Z,56.00
2018-03-18T22:03:51.105Z,55.70
2018-03-18T22:06:17.121Z,55.60
2018-03-18T22:08:43.937Z,55.30
2018-03-18T22:11:09.935Z,55.30
2018-03-18T22:13:36.211Z,54.90
2018-03-18T22:16:02.208Z,54.80
2018-03-18T22:18:28.220Z,55.10
2018-03-18T22:20:54.951Z,55.30
2018-03-18T22:23:21.059Z,55.40
2018-03-18T22:25:47.115Z,54.80
2018-03-18T22:28:13.830Z,55.10
2018-03-18T22:30:39.818Z,55.10
2018-03-18T22:33:05.790Z,55.50
2018-03-18T22:35:32.520Z,55.60
2018-03-18T22:37:58.522Z,55.50
2018-03-18T22:40:24.631Z,55.60
2018-03-18T22:42:50.642Z,55.30
2018-03-18T22:45:16.618Z,55.20
2018-03-18T22:47:43.390Z,55.00
2018-03-18T22:50:10.103Z,55.10
2018-03-18T22:52:36.090Z,55.10
2018-03-18T22:55:02.079Z,55.60
2018-03-18T22:57:28.828Z,55.50
2018-03-18T22:59:54.810Z,55.50
2018-03-18T23:02:20.808Z,55.50
2018-03-18T23:04:48.307Z,55.70
2018-03-18T23:07:15.050Z,55.60
2018-03-18T23:09:41.815Z,55.60
2018-03-18T23:12:07.839Z,55.60
2018-03-18T23:14:33.836Z,55.90
2018-03-18T23:17:00.579Z,55.70
2018-03-18T23:19:27.317Z,55.90
2018-03-18T23:21:54.075Z,55.60
2018-03-18T23:24:20.067Z,55.70
2018-03-18T23:26:46.064Z,55.90
2018-03-18T23:29:12.063Z,56.00
2018-03-18T23:31:38.059Z,56.10
2018-03-18T23:34:04.139Z,56.10
2018-03-18T23:36:30.123Z,56.40
2018-03-18T23:38:56.122Z,56.40
2018-03-18T23:41:22.862Z,56.70
2018-03-18T23:43:49.609Z,56.60
2018-03-18T23:46:15.639Z,56.60
2018-03-18T23:48:41.656Z,56.70
2018-03-18T23:51:08.391Z,56.60
2018-03-18T23:53:35.139Z,56.80
2018-03-18T23:56:01.917Z,56.90
2018-03-18T23:58:29.440Z,56.70
